createdAt,value
2022-10-30T00:00:48.391Z,25.67
2022-10-30T00:04:10.539Z,24.85
2022-10-30T00:07:12.472Z,25.85
2022-10-30T00:10:15.271Z,26.77
2022-10-30T00:13:18.127Z,25.38
2022-10-30T00:16:20.259Z,21.92
2022-10-30T00:19:22.216Z,22.77
2022-10-30T00:22:24.375Z,23.95
2022-10-30T00:25:26.432Z,23.38
2022-10-30T00:28:28.466Z,22.52
2022-10-30T00:31:31.328Z,21.15
2022-10-30T00:34:33.472Z,21.33
2022-10-30T00:37:35.361Z,21.10
2022-10-30T00:40:37.509Z,20.15
2022-10-30T00:43:40.636Z,21.70
2022-10-30T00:46:42.878Z,21.67
2022-10-30T00:50:12.161Z,20.45
2022-10-30T00:53:18.343Z,20.08
2022-10-30T00:56:23.306Z,19.40
2022-10-30T00:59:30.475Z,20.35
2022-10-30T01:02:33.239Z,20.98
2022-10-30T01:05:36.490Z,21.80
2022-10-30T01:08:39.059Z,24.73
2022-10-30T01:11:41.602Z,23.02
2022-10-30T01:14:50.573Z,25.13
2022-10-30T01:18:22.955Z,24.58
2022-10-30T01:21:31.206Z,25.17
2022-10-30T01:25:03.821Z,24.63
2022-10-30T01:28:31.862Z,23.58
2022-10-30T01:31:57.641Z,24.77
2022-10-30T01:35:05.435Z,24.15
2022-10-30T01:38:15.480Z,22.65
2022-10-30T01:41:17.533Z,22.15
2022-10-30T01:44:32.628Z,22.88
2022-10-30T01:47:46.509Z,21.85
2022-10-30T01:51:26.281Z,21.33
2022-10-30T01:54:39.915Z,21.13
2022-10-30T01:58:00.028Z,23.65
2022-10-30T02:01:02.654Z,27.13
2022-10-30T02:04:06.494Z,26.40
2022-10-30T02:07:09.843Z,24.45
2022-10-30T02:10:12.672Z,25.85
2022-10-30T02:13:15.412Z,23.83
2022-10-30T02:16:17.823Z,20.98
2022-10-30T02:19:19.776Z,20.63
2022-10-30T02:22:22.318Z,20.00
2022-10-30T02:25:24.310Z,19.85
2022-10-30T02:28:26.464Z,20.75
2022-10-30T02:31:28.753Z,20.57
2022-10-30T02:34:30.896Z,21.60
2022-10-30T02:37:32.870Z,21.48
2022-10-30T02:40:35.074Z,21.98
2022-10-30T02:43:37.080Z,20.90
2022-10-30T02:46:39.376Z,21.52
2022-10-30T02:49:41.399Z,21.55
2022-10-30T02:52:43.505Z,22.17
2022-10-30T02:55:45.446Z,26.17
2022-10-30T02:58:47.557Z,22.30
2022-10-30T03:01:49.520Z,22.70
2022-10-30T03:04:51.624Z,21.63
2022-10-30T03:07:54.899Z,18.98
2022-10-30T03:11:06.301Z,20.37
2022-10-30T03:14:08.243Z,21.17
2022-10-30T03:17:10.309Z,18.63
2022-10-30T03:20:12.526Z,18.63
2022-10-30T03:23:14.651Z,18.17
2022-10-30T03:26:17.495Z,18.17
2022-10-30T03:29:19.650Z,18.40
2022-10-30T03:32:21.688Z,17.37
2022-10-30T03:35:23.843Z,16.87
2022-10-30T03:38:26.099Z,16.10
2022-10-30T03:41:28.248Z,15.73
2022-10-30T03:44:30.220Z,15.67
2022-10-30T03:47:32.310Z,15.63
2022-10-30T03:50:34.283Z,15.67
2022-10-30T03:53:36.349Z,15.17
2022-10-30T03:56:38.342Z,15.93
2022-10-30T03:59:40.487Z,15.73
2022-10-30T04:02:50.308Z,17.27
2022-10-30T04:05:53.806Z,16.60
2022-10-30T04:08:55.973Z,16.20
2022-10-30T04:11:58.132Z,17.30
2022-10-30T04:15:00.023Z,18.90
2022-10-30T04:18:02.922Z,18.90
2022-10-30T04:21:05.175Z,17.07
2022-10-30T04:24:07.488Z,17.07
2022-10-30T04:27:09.444Z,16.93
2022-10-30T04:30:13.243Z,17.37
2022-10-30T04:33:15.294Z,17.83
2022-10-30T04:36:18.582Z,17.77
2022-10-30T04:39:20.480Z,18.55
2022-10-30T04:42:22.637Z,21.50
2022-10-30T04:45:24.921Z,20.60
2022-10-30T04:48:27.406Z,20.07
2022-10-30T04:51:29.328Z,19.77
2022-10-30T04:54:31.480Z,19.63
2022-10-30T04:57:34.419Z,19.92
2022-10-30T05:00:36.768Z,20.63
2022-10-30T05:03:38.798Z,20.70
2022-10-30T05:06:40.936Z,21.83
2022-10-30T05:09:42.934Z,20.42
2022-10-30T05:12:45.882Z,19.67
2022-10-30T05:15:47.859Z,19.97
2022-10-30T05:18:49.982Z,19.75
2022-10-30T05:21:52.095Z,21.87
2022-10-30T05:24:54.247Z,20.35
2022-10-30T05:28:04.179Z,19.87
2022-10-30T05:31:06.391Z,22.40
2022-10-30T05:34:08.333Z,22.83
2022-10-30T05:37:10.436Z,25.30
2022-10-30T05:40:12.493Z,23.60
2022-10-30T05:43:14.754Z,23.43
2022-10-30T05:46:16.851Z,24.10
2022-10-30T05:49:18.943Z,23.77
2022-10-30T05:52:20.987Z,25.00
2022-10-30T05:55:23.339Z,24.20
2022-10-30T05:58:25.648Z,23.50
2022-10-30T06:01:27.818Z,23.42
2022-10-30T06:04:29.924Z,22.40
2022-10-30T06:07:31.997Z,23.98
2022-10-30T06:10:34.368Z,23.60
2022-10-30T06:13:36.454Z,24.63
2022-10-30T06:16:38.649Z,23.00
2022-10-30T06:19:40.810Z,23.20
2022-10-30T06:22:42.785Z,22.45
2022-10-30T06:25:44.928Z,23.92
2022-10-30T06:28:47.098Z,24.13
2022-10-30T06:31:49.247Z,23.83
2022-10-30T06:34:51.143Z,25.40
2022-10-30T06:37:55.206Z,24.43
2022-10-30T06:40:57.173Z,24.15
2022-10-30T06:43:59.368Z,24.75
2022-10-30T06:47:01.421Z,23.35
2022-10-30T06:50:08.709Z,22.20
2022-10-30T06:53:10.692Z,23.45
2022-10-30T06:56:12.867Z,21.92
2022-10-30T06:59:14.823Z,21.45
2022-10-30T07:02:17.617Z,25.83
2022-10-30T07:05:19.638Z,27.67
2022-10-30T07:08:21.727Z,22.02
2022-10-30T07:11:23.871Z,21.10
2022-10-30T07:14:25.993Z,21.73
2022-10-30T07:17:27.978Z,20.42
2022-10-30T07:20:32.237Z,21.05
2022-10-30T07:23:34.182Z,21.73
2022-10-30T07:26:38.182Z,21.33
2022-10-30T07:29:40.168Z,21.33
2022-10-30T07:32:43.800Z,22.10
2022-10-30T07:35:45.731Z,21.95
2022-10-30T07:38:51.874Z,21.15
2022-10-30T07:41:53.799Z,21.73
2022-10-30T07:44:56.015Z,22.02
2022-10-30T07:47:58.210Z,22.85
2022-10-30T07:51:00.559Z,22.48
2022-10-30T07:54:02.777Z,22.25
2022-10-30T07:57:04.906Z,23.05
2022-10-30T08:00:09.608Z,22.20
2022-10-30T08:03:12.680Z,21.98
2022-10-30T08:06:14.579Z,21.55
2022-10-30T08:09:16.667Z,22.92
2022-10-30T08:12:18.692Z,20.52
2022-10-30T08:15:20.883Z,23.02
2022-10-30T08:18:22.952Z,21.30
2022-10-30T08:21:25.292Z,21.10
2022-10-30T08:24:27.270Z,21.42
2022-10-30T08:27:30.408Z,21.33
2022-10-30T08:30:35.009Z,21.23
2022-10-30T08:33:37.480Z,22.13
2022-10-30T08:36:41.701Z,20.33
2022-10-30T08:39:46.130Z,20.73
2022-10-30T08:42:55.740Z,21.00
2022-10-30T08:45:58.362Z,20.77
2022-10-30T08:49:00.574Z,20.33
2022-10-30T08:52:02.616Z,20.63
2022-10-30T08:55:05.138Z,21.35
2022-10-30T08:58:07.480Z,20.55
2022-10-30T09:01:09.768Z,21.10
2022-10-30T09:04:11.931Z,20.58
2022-10-30T09:07:13.846Z,19.95
2022-10-30T09:10:16.237Z,20.33
2022-10-30T09:13:18.160Z,20.30
2022-10-30T09:16:20.337Z,19.98
2022-10-30T09:19:22.294Z,20.17
2022-10-30T09:22:24.368Z,21.08
2022-10-30T09:25:26.551Z,21.25
2022-10-30T09:28:28.653Z,20.77
2022-10-30T09:31:30.562Z,22.15
2022-10-30T09:34:32.672Z,20.08
2022-10-30T09:37:38.683Z,20.77
2022-10-30T09:41:19.438Z,20.63
2022-10-30T09:45:08.042Z,20.33
2022-10-30T09:48:42.645Z,20.58
2022-10-30T09:52:17.929Z,20.58
2022-10-30T09:55:25.936Z,20.88
2022-10-30T09:58:38.666Z,19.80
2022-10-30T10:01:55.695Z,20.75
2022-10-30T10:05:30.032Z,21.35
2022-10-30T10:08:40.556Z,20.58
2022-10-30T10:11:48.606Z,19.85
2022-10-30T10:14:51.299Z,20.55
2022-10-30T10:17:53.528Z,20.02
2022-10-30T10:21:01.871Z,20.70
2022-10-30T10:24:16.792Z,20.55
2022-10-30T10:27:46.933Z,21.20
2022-10-30T10:31:44.517Z,21.17
2022-10-30T10:35:10.648Z,20.50
2022-10-30T10:38:21.234Z,19.38
2022-10-30T10:41:26.382Z,19.27
2022-10-30T10:44:34.300Z,18.25
2022-10-30T10:47:56.137Z,19.23
2022-10-30T10:51:10.633Z,18.38
2022-10-30T10:54:19.647Z,18.00
2022-10-30T10:57:35.306Z,18.52
2022-10-30T11:00:38.108Z,17.25
2022-10-30T11:03:57.582Z,18.20
2022-10-30T11:07:10.447Z,19.10
2022-10-30T11:10:14.816Z,18.48
2022-10-30T11:13:17.462Z,18.42
2022-10-30T11:16:51.288Z,18.33
2022-10-30T11:20:11.824Z,18.92
2022-10-30T11:23:40.491Z,18.50
2022-10-30T11:26:42.893Z,19.00
2022-10-30T11:29:52.632Z,18.95
2022-10-30T11:32:57.208Z,17.63
2022-10-30T11:36:14.576Z,18.02
2022-10-30T11:39:21.103Z,16.98
2022-10-30T11:42:23.083Z,18.85
2022-10-30T11:45:28.865Z,18.60
2022-10-30T11:48:33.951Z,16.75
2022-10-30T11:51:39.030Z,16.20
2022-10-30T11:54:46.119Z,18.00
2022-10-30T11:57:59.169Z,17.08
2022-10-30T12:01:03.430Z,18.17
2022-10-30T12:04:27.429Z,17.60
2022-10-30T12:07:33.679Z,17.35
2022-10-30T12:10:43.114Z,17.42
2022-10-30T12:13:45.138Z,17.42
2022-10-30T12:16:50.191Z,18.38
2022-10-30T12:19:55.290Z,18.15
2022-10-30T12:22:58.323Z,18.63
2022-10-30T12:26:08.799Z,17.35
2022-10-30T12:29:16.717Z,17.25
2022-10-30T12:32:21.705Z,17.90
2022-10-30T12:35:26.914Z,16.70
2022-10-30T12:38:44.325Z,16.95
2022-10-30T12:42:13.634Z,17.38
2022-10-30T12:45:28.076Z,15.82
2022-10-30T12:48:47.532Z,16.38
2022-10-30T12:52:07.582Z,15.75
2022-10-30T12:55:30.556Z,15.20
2022-10-30T12:59:12.387Z,16.70
2022-10-30T13:02:45.660Z,15.73
2022-10-30T13:09:17.067Z,16.75
2022-10-30T13:12:35.350Z,16.80
2022-10-30T13:15:44.896Z,15.75
2022-10-30T13:18:46.941Z,15.15
2022-10-30T13:22:00.620Z,16.02
2022-10-30T13:25:17.916Z,16.23
2022-10-30T13:28:27.972Z,15.88
2022-10-30T13:31:56.860Z,15.43
2022-10-30T13:35:17.941Z,15.85
2022-10-30T13:38:35.099Z,15.50
2022-10-30T13:42:16.797Z,16.33
2022-10-30T13:45:24.413Z,16.10
2022-10-30T13:48:48.450Z,18.05
2022-10-30T13:52:27.398Z,18.60
2022-10-30T13:55:35.177Z,20.35
2022-10-30T13:59:00.197Z,22.05
2022-10-30T14:02:14.151Z,20.88
2022-10-30T14:05:50.710Z,19.55
2022-10-30T14:09:00.894Z,36.88
2022-10-30T14:12:42.803Z,19.98
2022-10-30T14:15:46.512Z,20.67
2022-10-30T14:19:01.770Z,19.90
2022-10-30T14:22:03.921Z,18.20
2022-10-30T14:25:14.423Z,18.50
2022-10-30T14:28:22.783Z,17.40
2022-10-30T14:31:35.688Z,17.35
2022-10-30T14:34:49.937Z,16.88
2022-10-30T14:37:51.802Z,16.58
2022-10-30T14:40:53.833Z,16.65
2022-10-30T14:44:33.156Z,17.73
2022-10-30T14:47:57.174Z,18.30
2022-10-30T14:51:28.752Z,16.60
2022-10-30T14:55:02.161Z,16.08
2022-10-30T14:58:04.150Z,16.20
2022-10-30T15:01:20.098Z,17.27
2022-10-30T15:04:51.276Z,17.70
2022-10-30T15:08:34.365Z,16.40
2022-10-30T15:11:39.343Z,17.20
2022-10-30T15:14:53.860Z,17.98
2022-10-30T15:18:01.313Z,15.30
2022-10-30T15:21:18.589Z,15.85
2022-10-30T15:24:32.000Z,16.50
2022-10-30T15:27:46.163Z,18.23
2022-10-30T15:31:05.610Z,15.75
2022-10-30T15:34:22.473Z,15.07
2022-10-30T15:37:24.580Z,17.55
2022-10-30T15:40:27.741Z,14.23
2022-10-30T15:43:34.017Z,16.05
2022-10-30T15:46:36.681Z,14.98
2022-10-30T15:49:42.012Z,16.85
2022-10-30T15:52:44.286Z,17.27
2022-10-30T15:55:47.085Z,19.27
2022-10-30T15:58:51.955Z,22.42
2022-10-30T16:01:56.192Z,16.65
2022-10-30T16:04:58.342Z,16.98
2022-10-30T16:08:02.442Z,17.40
2022-10-30T16:11:05.457Z,16.85
2022-10-30T16:14:13.627Z,17.17
2022-10-30T16:17:15.963Z,18.88
2022-10-30T16:20:18.238Z,18.90
2022-10-30T16:23:21.637Z,23.35
2022-10-30T16:26:25.037Z,24.70
2022-10-30T16:29:27.826Z,25.10
2022-10-30T16:32:31.828Z,24.13
2022-10-30T16:35:34.105Z,23.58
2022-10-30T16:38:38.190Z,22.15
2022-10-30T16:41:40.588Z,22.42
2022-10-30T16:44:42.561Z,21.05
2022-10-30T16:47:47.372Z,23.85
2022-10-30T16:50:49.962Z,20.88
2022-10-30T16:53:53.117Z,21.52
2022-10-30T16:56:57.154Z,20.90
2022-10-30T17:00:01.572Z,22.17
2022-10-30T17:03:10.115Z,21.63
2022-10-30T17:06:44.679Z,36.95
2022-10-30T17:09:48.678Z,26.63
2022-10-30T17:12:50.882Z,27.60
2022-10-30T17:15:52.901Z,31.35
2022-10-30T17:18:57.474Z,28.58
2022-10-30T17:22:07.804Z,27.00
2022-10-30T17:25:30.391Z,29.55
2022-10-30T17:28:36.651Z,28.33
2022-10-30T17:31:38.707Z,28.20
2022-10-30T17:34:40.945Z,25.30
2022-10-30T17:37:43.089Z,27.20
2022-10-30T17:40:47.163Z,28.57
2022-10-30T17:43:53.306Z,27.63
2022-10-30T17:46:55.367Z,26.77
2022-10-30T17:49:57.596Z,25.93
2022-10-30T17:52:59.862Z,24.87
2022-10-30T17:56:23.557Z,23.10
2022-10-30T17:59:25.543Z,22.17
2022-10-30T18:02:27.878Z,22.93
2022-10-30T18:05:30.718Z,23.50
2022-10-30T18:08:33.871Z,22.67
2022-10-30T18:11:36.624Z,22.33
2022-10-30T18:14:38.788Z,24.88
2022-10-30T18:17:40.871Z,26.80
2022-10-30T18:20:43.063Z,25.93
2022-10-30T18:23:53.837Z,27.88
2022-10-30T18:26:56.796Z,27.10
2022-10-30T18:29:58.938Z,26.80
2022-10-30T18:33:01.685Z,27.03
2022-10-30T18:36:07.080Z,26.47
2022-10-30T18:39:13.138Z,23.97
2022-10-30T18:42:15.170Z,21.17
2022-10-30T18:45:19.310Z,21.83
2022-10-30T18:48:21.317Z,23.03
2022-10-30T18:51:26.122Z,21.53
2022-10-30T18:54:28.492Z,19.20
2022-10-30T18:57:30.670Z,19.37
2022-10-30T19:00:44.913Z,16.50
2022-10-30T19:03:53.454Z,15.17
2022-10-30T19:06:55.552Z,16.70
2022-10-30T19:09:59.594Z,16.10
2022-10-30T19:13:16.131Z,15.93
2022-10-30T19:16:20.102Z,16.10
2022-10-30T19:19:22.788Z,16.13
2022-10-30T19:22:25.644Z,15.70
2022-10-30T19:25:31.749Z,16.23
2022-10-30T19:28:34.100Z,16.57
2022-10-30T19:31:35.967Z,17.47
2022-10-30T19:34:38.575Z,18.30
2022-10-30T19:37:41.795Z,18.50
2022-10-30T19:40:44.443Z,17.43
2022-10-30T19:43:49.464Z,17.87
2022-10-30T19:46:51.785Z,17.90
2022-10-30T19:49:53.794Z,23.70
2022-10-30T19:52:58.899Z,22.47
2022-10-30T19:56:01.196Z,29.90
2022-10-30T19:59:03.810Z,36.57
2022-10-30T20:02:06.925Z,41.07
2022-10-30T20:05:15.887Z,41.00
2022-10-30T20:08:25.614Z,45.43
2022-10-30T20:11:28.524Z,59.77
2022-10-30T20:14:30.582Z,71.23
2022-10-30T20:17:33.190Z,66.03
2022-10-30T20:20:35.643Z,55.07
2022-10-30T20:23:38.495Z,50.80
2022-10-30T20:26:41.943Z,61.63
2022-10-30T20:29:44.243Z,54.60
2022-10-30T20:32:46.332Z,54.07
2022-10-30T20:35:50.121Z,53.13
2022-10-30T20:38:52.078Z,45.27
2022-10-30T20:41:54.259Z,53.63
2022-10-30T20:44:56.188Z,49.60
2022-10-30T20:47:58.698Z,47.67
2022-10-30T20:51:02.231Z,49.53
2022-10-30T20:54:04.488Z,56.70
2022-10-30T20:57:06.522Z,55.37
2022-10-30T21:00:11.634Z,59.83
2022-10-30T21:03:16.565Z,57.57
2022-10-30T21:06:19.252Z,59.87
2022-10-30T21:09:21.198Z,57.37
2022-10-30T21:12:23.572Z,51.13
2022-10-30T21:15:25.725Z,46.17
2022-10-30T21:18:27.884Z,49.43
2022-10-30T21:21:29.827Z,48.53
2022-10-30T21:24:32.036Z,48.40
2022-10-30T21:27:33.997Z,44.23
2022-10-30T21:30:36.139Z,47.13
2022-10-30T21:33:38.437Z,44.83
2022-10-30T21:36:40.648Z,41.97
2022-10-30T21:39:42.638Z,48.77
2022-10-30T21:42:48.075Z,44.23
2022-10-30T21:45:50.025Z,57.27
2022-10-30T21:48:52.469Z,58.03
2022-10-30T21:51:54.430Z,69.20
2022-10-30T21:54:56.556Z,64.57
2022-10-30T21:57:58.724Z,51.17
2022-10-30T22:01:01.120Z,57.13
2022-10-30T22:04:05.373Z,53.97
2022-10-30T22:07:07.677Z,49.30
2022-10-30T22:10:09.671Z,50.20
2022-10-30T22:16:18.578Z,49.67
2022-10-30T22:19:20.780Z,50.43
2022-10-30T22:22:22.699Z,50.83
2022-10-30T22:25:24.829Z,48.87
2022-10-30T22:28:28.542Z,47.30
2022-10-30T22:31:30.740Z,56.63
2022-10-30T22:34:32.806Z,50.37
2022-10-30T22:37:34.882Z,49.63
2022-10-30T22:40:36.819Z,50.27
2022-10-30T22:43:40.093Z,51.07
2022-10-30T22:46:42.095Z,50.40
2022-10-30T22:49:44.177Z,47.70
2022-10-30T22:52:46.221Z,48.57
2022-10-30T22:55:48.384Z,45.93
2022-10-30T22:58:51.494Z,50.93
2022-10-30T23:01:53.721Z,40.77
2022-10-30T23:04:55.653Z,39.70
2022-10-30T23:07:57.728Z,39.90
2022-10-30T23:10:59.716Z,40.67
2022-10-30T23:14:02.124Z,35.17
2022-10-30T23:17:04.078Z,35.03
2022-10-30T23:20:08.033Z,41.73
2022-10-30T23:23:10.214Z,39.23
2022-10-30T23:26:21.204Z,40.40
2022-10-30T23:29:23.136Z,37.13
2022-10-30T23:32:25.537Z,35.27
2022-10-30T23:35:27.471Z,38.60
2022-10-30T23:38:30.028Z,37.90
2022-10-30T23:41:34.509Z,35.40
2022-10-30T23:44:36.692Z,37.87
2022-10-30T23:47:42.583Z,40.40
2022-10-30T23:50:45.145Z,40.10
2022-10-30T23:53:47.639Z,39.37
2022-10-30T23:56:49.779Z,38.03
2022-10-30T23:59:51.705Z,38.87
